createdAt,value
2023-02-11T00:00:59.117Z,1.58
2023-02-11T00:03:26.311Z,2.45
2023-02-11T00:06:05.034Z,1.83
2023-02-11T00:08:31.632Z,1.43
2023-02-11T00:10:58.532Z,1.80
2023-02-11T00:13:25.626Z,1.75
2023-02-11T00:15:52.570Z,1.55
2023-02-11T00:18:19.121Z,2.05
2023-02-11T00:20:45.523Z,1.30
2023-02-11T00:23:12.117Z,1.45
2023-02-11T00:25:42.958Z,1.15
2023-02-11T00:28:10.626Z,1.63
2023-02-11T00:30:37.694Z,1.73
2023-02-11T00:33:04.316Z,1.17
2023-02-11T00:35:30.772Z,1.15
2023-02-11T00:37:57.209Z,1.67
2023-02-11T00:40:23.695Z,1.48
2023-02-11T00:42:50.114Z,1.67
2023-02-11T00:45:16.501Z,2.57
2023-02-11T00:47:43.166Z,1.60
2023-02-11T00:50:09.654Z,1.67
2023-02-11T00:52:36.158Z,1.67
2023-02-11T00:55:02.630Z,1.75
2023-02-11T00:57:29.076Z,1.40
2023-02-11T00:59:55.473Z,1.42
2023-02-11T01:02:21.902Z,1.27
2023-02-11T01:04:48.458Z,1.77
2023-02-11T01:07:14.987Z,1.50
2023-02-11T01:09:41.351Z,1.00
2023-02-11T01:12:07.769Z,1.60
2023-02-11T01:14:34.253Z,1.63
2023-02-11T01:17:00.635Z,1.58
2023-02-11T01:19:27.053Z,2.42
2023-02-11T01:21:53.417Z,1.30
2023-02-11T01:24:19.810Z,1.80
2023-02-11T01:26:46.216Z,2.08
2023-02-11T01:29:12.732Z,1.75
2023-02-11T01:31:39.314Z,1.92
2023-02-11T01:34:05.841Z,2.27
2023-02-11T01:36:32.436Z,1.77
2023-02-11T01:38:58.849Z,1.55
2023-02-11T01:41:25.324Z,1.83
2023-02-11T01:43:51.729Z,1.80
2023-02-11T01:46:33.535Z,1.80
2023-02-11T01:49:14.789Z,1.92
2023-02-11T01:52:03.485Z,1.88
2023-02-11T01:54:55.662Z,2.15
2023-02-11T01:57:26.157Z,1.65
2023-02-11T02:00:01.266Z,1.73
2023-02-11T02:02:37.407Z,1.40
2023-02-11T02:05:22.148Z,1.92
2023-02-11T02:08:01.318Z,1.45
2023-02-11T02:10:28.884Z,1.50
2023-02-11T02:12:55.876Z,1.67
2023-02-11T02:15:29.369Z,1.55
2023-02-11T02:18:16.533Z,2.33
2023-02-11T02:21:02.157Z,1.90
2023-02-11T02:23:51.611Z,1.92
2023-02-11T02:26:56.628Z,1.97
2023-02-11T02:29:51.146Z,1.88
2023-02-11T02:32:36.399Z,2.00
2023-02-11T02:35:15.478Z,2.58
2023-02-11T02:37:57.154Z,1.42
2023-02-11T02:40:29.434Z,1.90
2023-02-11T02:42:57.691Z,2.28
2023-02-11T02:45:24.326Z,1.30
2023-02-11T02:47:50.758Z,1.77
2023-02-11T02:50:25.213Z,2.03
2023-02-11T02:53:07.647Z,2.30
2023-02-11T02:55:51.855Z,2.20
2023-02-11T02:58:30.781Z,2.00
2023-02-11T03:01:14.437Z,1.80
2023-02-11T03:04:13.410Z,1.98
2023-02-11T03:06:49.280Z,2.03
2023-02-11T03:09:25.965Z,2.05
2023-02-11T03:11:52.958Z,2.28
2023-02-11T03:14:22.904Z,1.98
2023-02-11T03:16:51.788Z,2.10
2023-02-11T03:19:26.614Z,2.20
2023-02-11T03:21:53.550Z,2.50
2023-02-11T03:24:41.036Z,2.25
2023-02-11T03:27:16.645Z,1.63
2023-02-11T03:29:58.970Z,1.85
2023-02-11T03:32:49.077Z,1.97
2023-02-11T03:35:23.473Z,2.60
2023-02-11T03:38:02.830Z,2.67
2023-02-11T03:40:35.244Z,2.10
2023-02-11T03:43:12.524Z,2.08
2023-02-11T03:45:39.810Z,2.30
2023-02-11T03:48:14.218Z,2.60
2023-02-11T03:50:42.106Z,2.38
2023-02-11T03:53:10.069Z,2.80
2023-02-11T03:55:39.593Z,3.00
2023-02-11T03:58:06.535Z,3.23
2023-02-11T04:00:36.485Z,2.65
2023-02-11T04:03:04.328Z,3.28
2023-02-11T04:05:30.852Z,3.53
2023-02-11T04:07:57.272Z,3.38
2023-02-11T04:10:23.876Z,3.40
2023-02-11T04:12:50.461Z,3.45
2023-02-11T04:15:16.948Z,3.70
2023-02-11T04:17:44.834Z,3.67
2023-02-11T04:20:11.848Z,4.40
2023-02-11T04:22:38.308Z,4.20
2023-02-11T04:25:05.928Z,4.35
2023-02-11T04:27:32.545Z,4.53
2023-02-11T04:29:58.963Z,4.25
2023-02-11T04:32:25.376Z,3.60
2023-02-11T04:34:52.007Z,3.80
2023-02-11T04:37:18.476Z,4.22
2023-02-11T04:39:44.916Z,4.38
2023-02-11T04:42:11.384Z,4.35
2023-02-11T04:44:37.885Z,5.35
2023-02-11T04:47:04.328Z,4.97
2023-02-11T04:49:30.778Z,5.15
2023-02-11T04:51:57.196Z,4.82
2023-02-11T04:54:23.614Z,6.05
2023-02-11T04:56:51.142Z,6.22
2023-02-11T04:59:17.648Z,4.67
2023-02-11T05:01:44.115Z,5.93
2023-02-11T05:04:10.685Z,5.93
2023-02-11T05:06:39.734Z,6.13
2023-02-11T05:09:06.169Z,6.43
2023-02-11T05:11:32.676Z,5.60
2023-02-11T05:13:59.144Z,6.40
2023-02-11T05:16:25.671Z,7.30
2023-02-11T05:18:52.692Z,5.63
2023-02-11T05:21:20.245Z,5.93
2023-02-11T05:23:46.883Z,6.10
2023-02-11T05:26:14.106Z,6.53
2023-02-11T05:28:41.223Z,6.22
2023-02-11T05:31:08.942Z,5.85
2023-02-11T05:33:35.407Z,6.55
2023-02-11T05:36:08.301Z,6.40
2023-02-11T05:38:35.255Z,6.35
2023-02-11T05:41:02.116Z,6.28
2023-02-11T05:43:28.626Z,6.22
2023-02-11T05:45:55.214Z,7.25
2023-02-11T05:48:21.756Z,6.83
2023-02-11T05:50:48.215Z,7.00
2023-02-11T05:53:15.093Z,7.25
2023-02-11T05:55:41.850Z,7.20
2023-02-11T05:58:08.373Z,6.55
2023-02-11T06:00:35.810Z,7.40
2023-02-11T06:03:04.162Z,7.75
2023-02-11T06:05:30.965Z,6.68
2023-02-11T06:07:57.464Z,7.45
2023-02-11T06:10:23.954Z,8.23
2023-02-11T06:12:50.367Z,7.33
2023-02-11T06:15:16.875Z,7.05
2023-02-11T06:17:43.532Z,7.03
2023-02-11T06:20:10.950Z,7.40
2023-02-11T06:22:37.983Z,7.88
2023-02-11T06:25:05.024Z,8.07
2023-02-11T06:27:31.477Z,8.48
2023-02-11T06:29:57.954Z,9.05
2023-02-11T06:32:42.876Z,8.50
2023-02-11T06:35:12.057Z,7.53
2023-02-11T06:37:39.210Z,7.93
2023-02-11T06:40:06.320Z,8.40
2023-02-11T06:42:32.850Z,9.90
2023-02-11T06:44:59.261Z,7.70
2023-02-11T06:47:25.784Z,8.82
2023-02-11T06:49:52.210Z,8.80
2023-02-11T06:52:18.644Z,7.55
2023-02-11T06:54:45.034Z,8.20
2023-02-11T06:57:11.599Z,9.75
2023-02-11T06:59:37.988Z,8.88
2023-02-11T07:02:04.476Z,8.47
2023-02-11T07:04:31.155Z,8.02
2023-02-11T07:06:57.561Z,9.27
2023-02-11T07:09:23.962Z,9.32
2023-02-11T07:11:50.327Z,9.45
2023-02-11T07:14:16.976Z,9.17
2023-02-11T07:16:43.453Z,8.45
2023-02-11T07:19:10.088Z,9.80
2023-02-11T07:21:36.552Z,9.88
2023-02-11T07:24:08.893Z,10.02
2023-02-11T07:26:37.209Z,9.30
2023-02-11T07:29:03.598Z,8.85
2023-02-11T07:31:30.903Z,8.98
2023-02-11T07:34:01.121Z,9.07
2023-02-11T07:36:29.790Z,9.88
2023-02-11T07:38:56.230Z,10.20
2023-02-11T07:41:23.893Z,10.32
2023-02-11T07:43:50.813Z,10.80
2023-02-11T07:46:23.328Z,9.55
2023-02-11T07:48:50.527Z,9.88
2023-02-11T07:51:28.486Z,9.77
2023-02-11T07:53:57.417Z,10.85
2023-02-11T07:56:24.608Z,10.38
2023-02-11T07:58:51.850Z,9.80
2023-02-11T08:01:24.944Z,9.80
2023-02-11T08:03:51.778Z,11.23
2023-02-11T08:06:20.303Z,9.63
2023-02-11T08:08:47.131Z,10.23
2023-02-11T08:11:22.932Z,11.15
2023-02-11T08:13:49.389Z,9.55
2023-02-11T08:16:23.680Z,9.77
2023-02-11T08:18:51.075Z,9.45
2023-02-11T08:21:18.581Z,10.55
2023-02-11T08:23:46.253Z,10.50
2023-02-11T08:26:16.224Z,10.35
2023-02-11T08:28:44.271Z,10.20
2023-02-11T08:31:16.898Z,9.65
2023-02-11T08:33:44.114Z,9.63
2023-02-11T08:36:15.698Z,10.77
2023-02-11T08:38:42.576Z,10.82
2023-02-11T08:41:09.843Z,9.60
2023-02-11T08:43:37.215Z,10.25
2023-02-11T08:46:04.085Z,10.52
2023-02-11T08:48:30.647Z,9.70
2023-02-11T08:50:57.690Z,9.48
2023-02-11T08:53:24.468Z,9.97
2023-02-11T08:55:55.446Z,9.60
2023-02-11T08:58:22.425Z,10.45
2023-02-11T09:00:49.894Z,8.23
2023-02-11T09:03:17.884Z,8.55
2023-02-11T09:05:47.494Z,9.53
2023-02-11T09:08:14.446Z,9.45
2023-02-11T09:10:40.884Z,8.98
2023-02-11T09:13:07.913Z,9.25
2023-02-11T09:15:34.596Z,8.43
2023-02-11T09:18:01.692Z,9.10
2023-02-11T09:20:28.280Z,8.13
2023-02-11T09:22:56.939Z,9.05
2023-02-11T09:25:23.385Z,10.02
2023-02-11T09:27:51.282Z,9.82
2023-02-11T09:30:17.939Z,9.07
2023-02-11T09:32:44.372Z,9.05
2023-02-11T09:35:10.874Z,8.35
2023-02-11T09:37:37.569Z,7.88
2023-02-11T09:40:04.761Z,8.02
2023-02-11T09:42:46.391Z,7.43
2023-02-11T09:45:17.710Z,7.55
2023-02-11T09:47:50.855Z,9.13
2023-02-11T09:50:28.045Z,7.78
2023-02-11T09:53:02.304Z,7.95
2023-02-11T09:55:37.935Z,6.80
2023-02-11T09:58:11.729Z,7.07
2023-02-11T10:00:49.689Z,7.93
2023-02-11T10:03:43.940Z,7.55
2023-02-11T10:06:33.850Z,6.70
2023-02-11T10:09:18.705Z,7.63
2023-02-11T10:11:53.662Z,6.80
2023-02-11T10:14:43.945Z,7.20
2023-02-11T10:17:19.324Z,6.95
2023-02-11T10:20:06.828Z,7.78
2023-02-11T10:22:43.077Z,6.50
2023-02-11T10:25:40.266Z,7.50
2023-02-11T10:28:17.011Z,7.05
2023-02-11T10:30:59.503Z,6.97
2023-02-11T10:33:47.311Z,6.68
2023-02-11T10:36:17.755Z,6.37
2023-02-11T10:38:44.406Z,6.47
2023-02-11T10:41:18.069Z,6.47
2023-02-11T10:43:44.562Z,5.95
2023-02-11T10:46:18.328Z,6.85
2023-02-11T10:48:51.425Z,6.97
2023-02-11T10:51:23.628Z,6.35
2023-02-11T10:54:19.397Z,6.43
2023-02-11T10:56:47.416Z,6.00
2023-02-11T10:59:45.858Z,6.13
2023-02-11T11:02:23.708Z,5.90
2023-02-11T11:04:57.526Z,6.22
2023-02-11T11:07:30.356Z,5.93
2023-02-11T11:10:08.401Z,5.68
2023-02-11T11:12:53.035Z,5.80
2023-02-11T11:15:21.711Z,5.20
2023-02-11T11:18:21.536Z,5.88
2023-02-11T11:21:18.208Z,5.68
2023-02-11T11:23:57.342Z,6.18
2023-02-11T11:26:29.886Z,6.80
2023-02-11T11:29:11.697Z,5.47
2023-02-11T11:31:51.505Z,5.80
2023-02-11T11:34:29.928Z,6.15
2023-02-11T11:36:58.243Z,6.13
2023-02-11T11:39:26.568Z,6.30
2023-02-11T11:41:58.482Z,5.60
2023-02-11T11:44:56.537Z,5.53
2023-02-11T11:47:30.886Z,6.03
2023-02-11T11:50:23.453Z,4.85
2023-02-11T11:53:00.115Z,5.28
2023-02-11T11:55:35.642Z,4.60
2023-02-11T11:58:02.156Z,4.38
2023-02-11T12:00:35.244Z,4.70
2023-02-11T12:03:27.655Z,4.28
2023-02-11T12:06:20.934Z,4.68
2023-02-11T12:09:15.287Z,4.90
2023-02-11T12:12:02.446Z,4.78
2023-02-11T12:14:43.348Z,3.80
2023-02-11T12:17:31.762Z,4.25
2023-02-11T12:20:39.752Z,3.90
2023-02-11T12:23:28.968Z,3.87
2023-02-11T12:26:01.045Z,3.40
2023-02-11T12:28:38.497Z,2.80
2023-02-11T12:31:07.935Z,3.17
2023-02-11T12:33:58.395Z,4.05
2023-02-11T12:36:54.280Z,3.20
2023-02-11T12:39:32.917Z,3.08
2023-02-11T12:42:30.575Z,3.28
2023-02-11T12:45:02.878Z,3.55
2023-02-11T12:47:51.242Z,3.05
2023-02-11T12:50:36.277Z,3.30
2023-02-11T12:53:05.766Z,3.22
2023-02-11T12:55:40.402Z,3.33
2023-02-11T12:58:15.581Z,3.20
2023-02-11T13:00:46.549Z,3.40
2023-02-11T13:03:18.447Z,3.10
2023-02-11T13:05:52.922Z,3.28
2023-02-11T13:08:28.696Z,3.25
2023-02-11T13:10:59.174Z,3.00
2023-02-11T13:13:30.746Z,3.88
2023-02-11T13:16:09.215Z,3.20
2023-02-11T13:19:17.848Z,2.85
2023-02-11T13:22:08.710Z,2.50
2023-02-11T13:24:46.428Z,2.78
2023-02-11T13:27:30.263Z,3.30
2023-02-11T13:30:34.576Z,3.20
2023-02-11T13:33:01.039Z,2.80
2023-02-11T13:35:32.002Z,3.47
2023-02-11T13:38:04.775Z,3.03
2023-02-11T13:40:39.264Z,3.13
2023-02-11T13:43:19.977Z,2.97
2023-02-11T13:45:49.249Z,2.80
2023-02-11T13:48:21.856Z,3.50
2023-02-11T13:50:51.629Z,3.70
2023-02-11T13:53:18.805Z,2.50
2023-02-11T13:55:47.777Z,2.60
2023-02-11T13:58:14.142Z,2.70
2023-02-11T14:00:40.471Z,3.30
2023-02-11T14:03:31.868Z,3.00
2023-02-11T14:06:29.330Z,2.70
2023-02-11T14:09:08.906Z,2.57
2023-02-11T14:11:41.856Z,3.40
2023-02-11T14:14:08.168Z,2.90
2023-02-11T14:16:38.506Z,2.85
2023-02-11T14:19:06.712Z,3.13
2023-02-11T14:21:36.593Z,3.10
2023-02-11T14:24:04.754Z,2.83
2023-02-11T14:27:00.376Z,2.85
2023-02-11T14:29:35.756Z,2.97
2023-02-11T14:32:41.121Z,2.85
2023-02-11T14:35:26.375Z,2.73
2023-02-11T14:38:03.825Z,2.92
2023-02-11T14:40:38.844Z,3.45
2023-02-11T14:43:17.795Z,2.97
2023-02-11T14:45:49.821Z,2.75
2023-02-11T14:48:18.344Z,2.70
2023-02-11T14:50:46.855Z,3.00
2023-02-11T14:53:18.491Z,2.97
2023-02-11T14:55:48.660Z,2.70
2023-02-11T14:58:22.645Z,2.90
2023-02-11T15:00:52.358Z,3.20
2023-02-11T15:03:36.618Z,2.55
2023-02-11T15:06:07.807Z,2.92
2023-02-11T15:08:37.452Z,2.65
2023-02-11T15:11:10.381Z,2.40
2023-02-11T15:13:37.897Z,2.40
2023-02-11T15:16:07.736Z,2.72
2023-02-11T15:18:39.702Z,3.35
2023-02-11T15:21:07.508Z,2.85
2023-02-11T15:23:34.418Z,3.35
2023-02-11T15:26:05.388Z,3.07
2023-02-11T15:28:34.372Z,2.42
2023-02-11T15:31:06.368Z,2.80
2023-02-11T15:33:33.166Z,2.42
2023-02-11T15:36:01.646Z,2.90
2023-02-11T15:38:29.839Z,2.97
2023-02-11T15:41:02.068Z,2.60
2023-02-11T15:43:48.079Z,2.58
2023-02-11T15:46:18.914Z,2.75
2023-02-11T15:48:49.376Z,3.08
2023-02-11T15:51:39.817Z,2.97
2023-02-11T15:54:16.413Z,3.08
2023-02-11T15:56:45.418Z,2.75
2023-02-11T15:59:17.069Z,4.40
2023-02-11T16:01:45.391Z,2.88
2023-02-11T16:04:24.456Z,2.67
2023-02-11T16:06:51.295Z,2.30
2023-02-11T16:09:34.399Z,2.63
2023-02-11T16:12:23.076Z,2.83
2023-02-11T16:14:49.514Z,2.70
2023-02-11T16:17:18.914Z,2.97
2023-02-11T16:19:48.562Z,2.67
2023-02-11T16:22:22.936Z,2.30
2023-02-11T16:24:52.718Z,2.45
2023-02-11T16:27:28.529Z,2.78
2023-02-11T16:29:55.385Z,3.00
2023-02-11T16:32:29.984Z,2.13
2023-02-11T16:34:58.972Z,2.92
2023-02-11T16:37:25.899Z,2.38
2023-02-11T16:39:58.553Z,2.80
2023-02-11T16:42:25.305Z,3.00
2023-02-11T16:44:51.721Z,2.83
2023-02-11T16:47:24.353Z,2.80
2023-02-11T16:49:51.018Z,3.10
2023-02-11T16:52:18.151Z,2.80
2023-02-11T16:54:44.577Z,2.83
2023-02-11T16:57:19.614Z,2.25
2023-02-11T16:59:46.646Z,2.42
2023-02-11T17:02:17.012Z,2.67
2023-02-11T17:04:44.143Z,2.88
2023-02-11T17:07:10.572Z,2.73
2023-02-11T17:09:36.997Z,2.20
2023-02-11T17:12:03.493Z,4.13
2023-02-11T17:14:29.905Z,3.40
2023-02-11T17:16:56.619Z,2.80
2023-02-11T17:19:23.662Z,3.87
2023-02-11T17:21:52.426Z,2.60
2023-02-11T17:24:20.825Z,2.65
2023-02-11T17:26:47.992Z,2.80
2023-02-11T17:29:19.915Z,3.42
2023-02-11T17:31:46.424Z,3.83
2023-02-11T17:34:13.008Z,3.10
2023-02-11T17:36:41.299Z,3.67
2023-02-11T17:39:08.642Z,3.65
2023-02-11T17:41:38.824Z,3.28
2023-02-11T17:44:06.383Z,3.60
2023-02-11T17:46:34.523Z,3.30
2023-02-11T17:49:01.994Z,2.67
2023-02-11T17:51:30.159Z,3.80
2023-02-11T17:54:02.519Z,3.50
2023-02-11T17:56:31.477Z,3.77
2023-02-11T17:58:57.965Z,3.65
2023-02-11T18:01:27.995Z,3.90
2023-02-11T18:03:54.459Z,3.38
2023-02-11T18:06:21.623Z,3.60
2023-02-11T18:08:48.391Z,3.60
2023-02-11T18:11:17.745Z,3.67
2023-02-11T18:13:45.472Z,3.33
2023-02-11T18:16:15.813Z,3.58
2023-02-11T18:18:43.326Z,4.70
2023-02-11T18:21:18.055Z,3.60
2023-02-11T18:23:45.209Z,3.50
2023-02-11T18:26:13.593Z,3.72
2023-02-11T18:28:41.468Z,4.30
2023-02-11T18:31:10.157Z,3.83
2023-02-11T18:33:38.930Z,3.87
2023-02-11T18:36:06.939Z,4.57
2023-02-11T18:38:33.718Z,4.53
2023-02-11T18:41:00.223Z,4.07
2023-02-11T18:43:31.674Z,3.80
2023-02-11T18:45:58.241Z,4.60
2023-02-11T18:48:27.019Z,3.83
2023-02-11T18:50:54.884Z,4.70
2023-02-11T18:53:22.329Z,3.97
2023-02-11T18:55:49.049Z,4.65
2023-02-11T18:58:15.654Z,4.30
2023-02-11T19:00:45.180Z,3.92
2023-02-11T19:03:11.710Z,4.30
2023-02-11T19:05:49.535Z,4.50
2023-02-11T19:08:17.127Z,3.78
2023-02-11T19:10:46.178Z,4.20
2023-02-11T19:13:13.545Z,4.15
2023-02-11T19:15:45.338Z,4.45
2023-02-11T19:18:13.401Z,4.00
2023-02-11T19:20:41.224Z,4.07
2023-02-11T19:23:07.743Z,4.20
2023-02-11T19:25:34.575Z,4.53
2023-02-11T19:28:01.071Z,4.40
2023-02-11T19:30:28.008Z,4.75
2023-02-11T19:32:57.060Z,4.28
2023-02-11T19:35:24.617Z,4.60
2023-02-11T19:37:52.213Z,4.30
2023-02-11T19:40:21.076Z,4.00
2023-02-11T19:42:47.461Z,4.85
2023-02-11T19:45:13.836Z,4.53
2023-02-11T19:47:40.284Z,4.30
2023-02-11T19:50:07.368Z,4.30
2023-02-11T19:52:33.905Z,4.40
2023-02-11T19:55:00.829Z,4.20
2023-02-11T19:57:27.225Z,4.80
2023-02-11T19:59:54.955Z,4.50
2023-02-11T20:02:21.519Z,5.07
2023-02-11T20:04:48.446Z,5.35
2023-02-11T20:07:15.139Z,3.95
2023-02-11T20:09:42.561Z,4.60
2023-02-11T20:12:09.678Z,4.63
2023-02-11T20:14:36.127Z,4.32
2023-02-11T20:17:02.668Z,4.60
2023-02-11T20:19:30.587Z,3.97
2023-02-11T20:21:57.234Z,4.22
2023-02-11T20:24:25.217Z,4.20
2023-02-11T20:26:55.537Z,4.10
2023-02-11T20:29:22.870Z,4.30
2023-02-11T20:31:50.108Z,4.05
2023-02-11T20:34:17.801Z,4.07
2023-02-11T20:36:51.330Z,4.00
2023-02-11T20:39:18.688Z,4.00
2023-02-11T20:41:46.326Z,4.20
2023-02-11T20:44:13.514Z,4.00
2023-02-11T20:46:42.468Z,3.97
2023-02-11T20:49:14.417Z,3.87
2023-02-11T20:51:42.055Z,4.82
2023-02-11T20:54:13.108Z,4.47
2023-02-11T20:56:39.563Z,4.60
2023-02-11T20:59:06.637Z,4.82
2023-02-11T21:01:44.837Z,4.60
2023-02-11T21:04:18.017Z,4.47
2023-02-11T21:06:47.346Z,4.82
2023-02-11T21:09:17.567Z,4.97
2023-02-11T21:11:43.990Z,4.68
2023-02-11T21:14:11.992Z,5.00
2023-02-11T21:16:39.480Z,5.13
2023-02-11T21:19:06.178Z,4.55
2023-02-11T21:21:34.309Z,4.72
2023-02-11T21:24:00.870Z,4.50
2023-02-11T21:26:28.588Z,4.60
2023-02-11T21:28:55.283Z,4.13
2023-02-11T21:31:26.268Z,4.30
2023-02-11T21:33:56.712Z,4.70
2023-02-11T21:36:23.655Z,4.57
2023-02-11T21:38:51.026Z,4.20
2023-02-11T21:41:18.962Z,5.00
2023-02-11T21:43:45.766Z,4.38
2023-02-11T21:46:15.110Z,4.28
2023-02-11T21:48:41.982Z,4.30
2023-02-11T21:51:12.719Z,4.43
2023-02-11T21:53:39.333Z,4.97
2023-02-11T21:56:15.080Z,4.75
2023-02-11T21:58:41.779Z,4.03
2023-02-11T22:01:17.375Z,5.25
2023-02-11T22:03:45.026Z,4.67
2023-02-11T22:06:13.889Z,4.93
2023-02-11T22:08:41.079Z,4.20
2023-02-11T22:11:10.663Z,4.60
2023-02-11T22:13:37.354Z,5.35
2023-02-11T22:16:06.658Z,5.10
2023-02-11T22:18:33.407Z,4.53
2023-02-11T22:21:12.289Z,4.72
2023-02-11T22:23:39.470Z,5.43
2023-02-11T22:26:08.942Z,4.88
2023-02-11T22:28:37.072Z,4.63
2023-02-11T22:31:03.831Z,4.90
2023-02-11T22:33:30.644Z,4.53
2023-02-11T22:36:07.546Z,4.90
2023-02-11T22:38:34.837Z,4.45
2023-02-11T22:41:06.542Z,5.13
2023-02-11T22:43:32.962Z,4.57
2023-02-11T22:46:05.051Z,5.03
2023-02-11T22:48:32.027Z,5.18
2023-02-11T22:51:05.132Z,4.82
2023-02-11T22:53:31.652Z,5.20
2023-02-11T22:56:15.043Z,5.60
2023-02-11T22:58:41.985Z,5.75
2023-02-11T23:01:08.529Z,5.10
2023-02-11T23:03:35.706Z,5.65
2023-02-11T23:06:02.303Z,4.33
2023-02-11T23:08:30.306Z,5.10
2023-02-11T23:11:03.370Z,5.13
2023-02-11T23:13:29.881Z,5.00
2023-02-11T23:15:56.774Z,5.72
2023-02-11T23:18:23.370Z,5.20
2023-02-11T23:20:49.752Z,5.45
2023-02-11T23:23:16.689Z,5.30
2023-02-11T23:25:44.212Z,4.80
2023-02-11T23:28:11.691Z,5.47
2023-02-11T23:30:38.581Z,5.43
2023-02-11T23:33:05.054Z,5.53
2023-02-11T23:35:31.591Z,5.47
2023-02-11T23:37:58.027Z,5.93
2023-02-11T23:40:24.516Z,5.68
2023-02-11T23:42:51.775Z,5.43
2023-02-11T23:45:18.588Z,6.22
2023-02-11T23:47:45.102Z,5.88
2023-02-11T23:50:11.747Z,6.10
2023-02-11T23:52:38.171Z,5.72
2023-02-11T23:55:05.082Z,5.90
2023-02-11T23:57:32.856Z,6.47
